Time;durP1;ratioP1;P1;durP2;ratioP2;P2;SDS_P1;SDS_P2;PMS_P1;PMS_P2;Temp;Humidity;BMP_temperature;BMP_pressure;BME280_temperature;BME280_humidity;BME280_pressure;Samples;Min_cycle;Max_cycle;Signal;HPM_P1;HPM_P2
2023/06/24 00:00:48;;;;;;;10.48;7.53;;;;;;;25.19;65.70;100597.69;10133683;28;96899;-79
2023/06/24 00:05:53;;;;;;;16.75;11.20;;;;;;;25.11;66.14;100583.25;10139912;28;96788;-79
2023/06/24 00:10:57;;;;;;;15.75;11.07;;;;;;;24.98;66.73;100594.34;10138569;28;98515;-79
2023/06/24 00:16:01;;;;;;;12.50;9.55;;;;;;;24.93;66.84;100585.81;10137484;28;96880;-79
2023/06/24 00:21:05;;;;;;;11.33;8.33;;;;;;;24.85;67.30;100585.69;10137970;28;97071;-79
2023/06/24 00:26:09;;;;;;;;;;;;;;;24.82;67.22;100591.38;10138829;28;96961;-79
2023/06/24 00:31:13;;;;;;;9.02;6.82;;;;;;;24.69;67.56;100588.97;10135559;28;97555;-79
2023/06/24 00:36:17;;;;;;;9.17;6.13;;;;;;;24.61;68.02;100583.44;10137118;28;97186;-79
2023/06/24 00:41:22;;;;;;;;;;;;;;;24.63;68.06;100578.78;10139625;28;96930;-79
2023/06/24 00:46:26;;;;;;;8.43;6.05;;;;;;;24.61;67.46;100575.38;10139305;28;97063;-79
2023/06/24 00:51:31;;;;;;;8.80;5.88;;;;;;;24.51;67.95;100568.28;10136817;28;97101;-79
2023/06/24 00:56:39;;;;;;;6.97;5.35;;;;;;;24.37;68.65;100568.69;10140283;28;96971;-79
2023/06/24 01:01:44;;;;;;;8.13;5.68;;;;;;;24.16;69.68;100567.94;10136774;28;96909;-79
2023/06/24 01:06:48;;;;;;;7.28;5.22;;;;;;;24.10;69.73;100558.56;10137582;28;98551;-78
2023/06/24 01:11:52;;;;;;;6.95;5.45;;;;;;;24.07;69.71;100550.78;10137861;28;98575;-79
2023/06/24 01:17:03;;;;;;;7.88;5.60;;;;;;;24.19;68.66;100549.69;10135722;28;96761;-79
2023/06/24 01:22:21;;;;;;;8.27;5.45;;;;;;;24.22;68.51;100557.47;10137623;28;96735;-79
2023/06/24 01:28:08;;;;;;;8.65;5.22;;;;;;;24.15;68.89;100550.94;10134232;28;96855;-79
2023/06/24 01:33:20;;;;;;;8.38;5.57;;;;;;;24.04;69.21;100552.91;10136470;28;96949;-79
2023/06/24 01:38:32;;;;;;;7.40;5.20;;;;;;;23.97;69.63;100549.94;10134037;28;98733;-78
2023/06/24 01:43:36;;;;;;;6.22;4.97;;;;;;;23.99;69.38;100545.28;10120899;28;96784;-78
2023/06/24 01:48:45;;;;;;;6.57;5.20;;;;;;;24.09;69.09;100539.91;10135147;28;97497;-79
2023/06/24 01:53:52;;;;;;;6.30;4.97;;;;;;;24.17;68.32;100535.50;10135184;28;96840;-79
2023/06/24 01:58:58;;;;;;;7.28;5.28;;;;;;;23.86;69.61;100535.78;10134009;28;97794;-79
2023/06/24 02:04:05;;;;;;;6.68;4.93;;;;;;;23.93;68.83;100526.13;10132427;28;97031;-79
2023/06/24 02:09:11;;;;;;;6.45;4.95;;;;;;;23.58;70.89;100529.28;10135383;28;96991;-79
2023/06/24 02:14:17;;;;;;;6.88;5.40;;;;;;;23.69;70.21;100522.00;10134513;28;98680;-79
2023/06/24 02:19:22;;;;;;;7.00;4.55;;;;;;;23.77;69.91;100528.53;10133539;28;96858;-79
2023/06/24 02:24:26;;;;;;;8.13;5.03;;;;;;;23.70;69.76;100528.22;10133754;28;96744;-78
2023/06/24 02:29:31;;;;;;;8.13;4.75;;;;;;;23.86;68.99;100528.53;10134840;28;96965;-79
2023/06/24 02:34:36;;;;;;;6.43;4.60;;;;;;;23.90;69.10;100524.59;10133508;28;99079;-79
2023/06/24 02:39:43;;;;;;;9.52;5.50;;;;;;;23.59;70.22;100525.63;10133820;28;96894;-78
2023/06/24 02:44:47;;;;;;;7.60;5.43;;;;;;;23.48;70.33;100515.81;10131661;28;96825;-78
2023/06/24 02:49:54;;;;;;;8.07;5.73;;;;;;;23.42;70.91;100518.19;10116780;28;97320;-78
2023/06/24 02:54:58;;;;;;;7.82;5.70;;;;;;;23.16;71.43;100515.13;10131634;28;96912;-79
2023/06/24 03:00:07;;;;;;;7.25;5.25;;;;;;;23.22;71.29;100514.56;10127196;28;96824;-78
2023/06/24 03:05:12;;;;;;;6.65;4.82;;;;;;;23.53;69.39;100515.38;10125455;28;98517;-79
2023/06/24 03:10:16;;;;;;;7.35;5.10;;;;;;;23.28;70.81;100514.03;10133787;28;96802;-78
2023/06/24 03:15:19;;;;;;;6.63;4.47;;;;;;;23.44;69.11;100508.16;10111180;28;96829;-78
2023/06/24 03:20:24;;;;;;;7.80;5.17;;;;;;;23.66;67.63;100505.28;10141587;28;96822;-78
2023/06/24 03:25:27;;;;;;;7.68;5.05;;;;;;;23.75;66.65;100504.47;10136835;28;96836;-79
2023/06/24 03:30:31;;;;;;;7.13;4.95;;;;;;;23.64;67.52;100505.44;10130974;28;97539;-78
2023/06/24 03:35:35;;;;;;;7.47;5.00;;;;;;;23.52;67.92;100509.19;10136456;28;96795;-78
2023/06/24 03:40:39;;;;;;;6.00;4.47;;;;;;;23.60;67.91;100506.69;10106378;28;96688;-78
2023/06/24 03:45:43;;;;;;;6.43;4.40;;;;;;;23.35;68.45;100503.59;10134315;28;98928;-78
2023/06/24 03:50:48;;;;;;;7.53;4.77;;;;;;;23.34;68.68;100508.13;10136134;28;96792;-79
2023/06/24 03:55:51;;;;;;;6.43;4.45;;;;;;;23.24;69.06;100501.88;10136333;28;96834;-79
2023/06/24 04:00:56;;;;;;;6.00;3.95;;;;;;;23.38;67.54;100506.00;10135433;28;97278;-79
2023/06/24 04:06:01;;;;;;;6.32;4.55;;;;;;;23.20;68.54;100504.97;10135446;28;96875;-78
2023/06/24 04:11:04;;;;;;;6.50;4.50;;;;;;;23.51;66.62;100496.72;10127699;28;96866;-78
2023/06/24 04:16:08;;;;;;;7.47;4.70;;;;;;;23.45;66.73;100496.44;10135201;28;96862;-78
2023/06/24 04:21:14;;;;;;;5.93;4.50;;;;;;;23.52;65.97;100501.13;10136014;28;96775;-78
2023/06/24 04:26:17;;;;;;;5.85;4.00;;;;;;;23.69;64.10;100508.56;10135004;28;96735;-78
2023/06/24 04:31:20;;;;;;;6.07;4.40;;;;;;;23.67;65.20;100512.34;10134626;28;96785;-78
2023/06/24 04:36:25;;;;;;;6.67;4.47;;;;;;;23.49;65.51;100514.81;10133910;28;96796;-78
2023/06/24 04:41:28;;;;;;;6.47;4.55;;;;;;;23.72;64.07;100520.84;10128171;28;98441;-79
2023/06/24 04:46:32;;;;;;;5.88;4.45;;;;;;;23.79;63.42;100518.50;10123244;28;99028;-78
2023/06/24 04:51:37;;;;;;;7.80;4.40;;;;;;;23.88;63.04;100528.38;10126595;28;97404;-78
2023/06/24 04:56:41;;;;;;;5.32;3.70;;;;;;;23.91;62.57;100523.59;10127278;28;97380;-79
2023/06/24 05:01:44;;;;;;;6.22;4.15;;;;;;;23.87;63.02;100530.25;10124630;28;98520;-79
2023/06/24 05:06:49;;;;;;;8.18;4.30;;;;;;;23.90;62.50;100529.97;10131759;28;96835;-79
2023/06/24 05:11:52;;;;;;;5.55;4.18;;;;;;;23.93;62.48;100537.75;10134022;28;96974;-79
2023/06/24 05:16:55;;;;;;;7.00;4.67;;;;;;;23.97;62.17;100531.09;10101588;28;96599;-79
2023/06/24 05:22:00;;;;;;;6.33;4.37;;;;;;;24.11;61.44;100532.53;10129043;28;96934;-79
2023/06/24 05:27:06;;;;;;;5.75;4.05;;;;;;;24.12;61.37;100539.59;10128574;28;96944;-79
2023/06/24 05:32:09;;;;;;;6.85;4.22;;;;;;;24.17;61.18;100532.00;10126130;28;99218;-79
2023/06/24 05:37:14;;;;;;;7.03;4.83;;;;;;;24.22;60.91;100538.63;10130258;28;96926;-78
2023/06/24 05:42:17;;;;;;;6.53;4.30;;;;;;;24.30;60.69;100544.22;10129362;28;97010;-79
2023/06/24 05:47:20;;;;;;;7.07;4.30;;;;;;;24.31;60.34;100540.50;10132176;23;98392;-79
2023/06/24 05:52:26;;;;;;;6.50;4.70;;;;;;;24.41;60.10;100540.53;10127893;28;98546;-78
2023/06/24 05:57:29;;;;;;;6.95;4.55;;;;;;;24.48;59.73;100545.19;10127461;28;97038;-79
2023/06/24 06:02:32;;;;;;;5.73;4.27;;;;;;;24.61;58.98;100548.47;10127469;28;96862;-78
2023/06/24 06:07:39;;;;;;;6.30;4.77;;;;;;;24.72;58.63;100550.16;10125564;28;97041;-78
2023/06/24 06:12:42;;;;;;;6.13;4.38;;;;;;;24.81;58.38;100543.88;10127975;28;96825;-79
2023/06/24 06:17:46;;;;;;;7.27;5.00;;;;;;;24.91;58.03;100550.13;10125972;28;97005;-79
2023/06/24 06:22:51;;;;;;;5.50;4.13;;;;;;;25.05;57.72;100567.69;10129844;28;96833;-78
2023/06/24 06:27:54;;;;;;;5.70;4.07;;;;;;;25.14;56.70;100562.28;10125620;28;96878;-79
2023/06/24 06:32:58;;;;;;;5.60;4.20;;;;;;;25.18;56.25;100563.69;10116839;28;96892;-79
2023/06/24 06:38:02;;;;;;;6.07;4.20;;;;;;;25.34;55.66;100568.47;10126185;28;97155;-79
2023/06/24 06:43:06;;;;;;;5.82;4.20;;;;;;;25.46;55.24;100572.69;10126584;28;98437;-79
2023/06/24 06:48:09;;;;;;;6.33;4.73;;;;;;;25.60;54.73;100567.66;10124769;28;97838;-79
2023/06/24 06:53:14;;;;;;;5.87;3.87;;;;;;;25.79;54.32;100573.00;10125659;28;97689;-79
2023/06/24 06:58:17;;;;;;;5.40;4.00;;;;;;;25.96;53.95;100579.44;10127527;28;96897;-79
2023/06/24 07:03:20;;;;;;;6.13;4.13;;;;;;;26.13;53.37;100570.50;10127013;28;96881;-79
2023/06/24 07:08:25;;;;;;;5.40;3.97;;;;;;;26.28;53.44;100571.69;10122019;28;98248;-79
2023/06/24 07:13:28;;;;;;;5.70;4.22;;;;;;;26.39;52.48;100568.81;10126090;28;96865;-79
2023/06/24 07:18:31;;;;;;;6.63;4.07;;;;;;;26.45;51.52;100567.34;10125207;28;97205;-79
2023/06/24 07:23:36;;;;;;;6.20;4.30;;;;;;;26.60;51.91;100568.50;10127683;28;96870;-80
2023/06/24 07:28:39;;;;;;;5.25;3.95;;;;;;;26.78;50.93;100572.88;10122689;28;98787;-79
2023/06/24 07:33:42;;;;;;;6.75;4.18;;;;;;;26.87;51.08;100574.63;10124364;28;96820;-78
2023/06/24 07:38:47;;;;;;;6.57;4.40;;;;;;;26.96;50.11;100576.41;10123052;28;97146;-78
2023/06/24 07:43:50;;;;;;;5.35;3.90;;;;;;;27.08;49.67;100570.78;10126472;28;99249;-79
2023/06/24 07:48:54;;;;;;;6.25;4.28;;;;;;;27.15;49.03;100569.97;10133115;28;97015;-82
2023/06/24 07:53:58;;;;;;;5.63;3.97;;;;;;;27.32;48.63;100565.53;10130940;28;96851;-79
2023/06/24 07:59:03;;;;;;;6.80;4.03;;;;;;;27.48;48.40;100571.88;10127637;28;99481;-82
2023/06/24 08:04:06;;;;;;;6.63;4.57;;;;;;;27.72;47.87;100568.47;10128954;28;99117;-81
2023/06/24 08:09:11;;;;;;;;;;;;;;;27.75;47.23;100566.28;10132722;28;97863;-80
2023/06/24 08:14:14;;;;;;;;;;;;;;;27.89;47.18;100562.97;10132951;28;96880;-81
2023/06/24 08:19:17;;;;;;;6.13;4.50;;;;;;;28.18;47.00;100567.13;10134010;28;96910;-81
2023/06/24 08:24:22;;;;;;;6.70;4.28;;;;;;;28.33;46.07;100565.47;10133181;28;96816;-80
2023/06/24 08:29:25;;;;;;;6.15;3.97;;;;;;;28.40;45.26;100558.38;10127058;28;98487;-77
2023/06/24 08:34:28;;;;;;;6.57;4.40;;;;;;;28.45;44.76;100559.59;10126249;28;98634;-84
2023/06/24 08:39:33;;;;;;;6.07;4.30;;;;;;;28.72;44.85;100553.00;10132779;28;98393;-82
2023/06/24 08:44:36;;;;;;;5.97;4.47;;;;;;;28.64;44.11;100555.69;10121243;28;96825;-81
2023/06/24 08:49:47;;;;;;;7.80;4.63;;;;;;;28.74;43.89;100557.22;10107503;28;96794;-81
2023/06/24 08:54:52;;;;;;;6.05;4.45;;;;;;;28.85;43.85;100539.78;10123116;28;96808;-87
2023/06/24 08:59:56;;;;;;;6.43;4.43;;;;;;;28.94;43.08;100541.50;10107753;28;96999;-87
2023/06/24 09:04:59;;;;;;;6.68;4.40;;;;;;;29.02;43.23;100542.34;10134111;28;96653;-87
2023/06/24 09:10:04;;;;;;;6.13;4.35;;;;;;;29.16;42.75;100516.41;10132933;28;96678;-84
2023/06/24 09:15:15;;;;;;;5.65;4.10;;;;;;;29.31;42.52;100524.66;10133546;28;99226;-86
2023/06/24 09:20:22;;;;;;;5.30;3.90;;;;;;;29.37;42.35;100516.69;10134326;28;96786;-86
2023/06/24 09:25:29;;;;;;;6.70;4.43;;;;;;;29.52;42.76;100524.97;10134295;28;96915;-87
2023/06/24 09:30:33;;;;;;;5.65;4.30;;;;;;;29.64;42.12;100516.25;10134024;28;96832;-84
2023/06/24 09:35:38;;;;;;;5.78;4.32;;;;;;;29.93;42.25;100505.63;10151367;28;97140;-87
2023/06/24 09:40:47;;;;;;;6.75;4.70;;;;;;;29.87;41.93;100509.03;10154347;28;97019;-87
2023/06/24 09:45:52;;;;;;;6.20;4.28;;;;;;;30.00;41.73;100495.75;10143802;28;96866;-82
2023/06/24 09:51:03;;;;;;;6.40;4.30;;;;;;;30.03;41.65;100489.09;10123231;28;97010;-81
2023/06/24 09:56:11;;;;;;;5.68;4.22;;;;;;;30.18;41.04;100487.31;10120630;28;96939;-79
2023/06/24 10:01:16;;;;;;;6.10;4.50;;;;;;;30.31;42.07;100479.44;10127651;28;97371;-83
2023/06/24 10:06:20;;;;;;;6.65;4.72;;;;;;;30.41;41.34;100462.88;10125943;28;96945;-82
2023/06/24 10:11:25;;;;;;;7.05;4.63;;;;;;;30.55;41.05;100460.22;10113726;28;98110;-82
2023/06/24 10:16:28;;;;;;;7.13;4.85;;;;;;;30.65;41.29;100459.94;10132371;28;96824;-84
2023/06/24 10:21:45;;;;;;;;;;;;;;;30.54;41.31;100435.94;10132549;28;96857;-84
2023/06/24 10:26:50;;;;;;;6.45;4.18;;;;;;;30.68;41.55;100437.88;10132135;28;96749;-82
2023/06/24 10:31:56;;;;;;;5.88;4.43;;;;;;;30.88;41.25;100439.03;10130852;28;96694;-82
2023/06/24 10:37:01;;;;;;;5.22;4.20;;;;;;;31.14;41.17;100444.84;10131229;28;96906;-83
2023/06/24 10:42:28;;;;;;;6.68;4.88;;;;;;;31.14;41.40;100442.13;10131657;28;96630;-82
2023/06/24 10:47:31;;;;;;;7.03;4.40;;;;;;;31.34;41.48;100444.13;10130754;28;97219;-83
2023/06/24 10:52:39;;;;;;;6.40;4.72;;;;;;;31.51;40.88;100438.47;10130853;28;98406;-83
2023/06/24 10:57:44;;;;;;;6.70;4.72;;;;;;;31.65;40.57;100432.97;10129283;28;96763;-82
2023/06/24 11:02:47;;;;;;;6.72;5.05;;;;;;;31.79;40.76;100442.16;10131151;28;96979;-84
2023/06/24 11:07:51;;;;;;;5.55;4.25;;;;;;;32.10;40.54;100440.84;10130170;28;96899;-83
2023/06/24 11:12:57;;;;;;;6.10;4.25;;;;;;;32.37;39.68;100431.94;10129768;28;96778;-83
2023/06/24 11:18:04;;;;;;;4.85;4.10;;;;;;;32.54;39.62;100432.47;10132902;28;96858;-81
2023/06/24 11:23:11;;;;;;;4.57;3.53;;;;;;;32.87;40.08;100419.97;10135327;28;96860;-84
2023/06/24 11:28:18;;;;;;;8.00;4.75;;;;;;;32.79;39.05;100411.94;10139766;28;96758;-83
2023/06/24 11:33:28;;;;;;;5.82;4.35;;;;;;;33.04;39.21;100406.84;10135632;28;96888;-84
2023/06/24 11:38:32;;;;;;;5.63;4.30;;;;;;;33.05;38.86;100403.91;10133783;28;96891;-82
2023/06/24 11:43:37;;;;;;;5.18;4.10;;;;;;;33.36;38.24;100408.91;10130898;28;98815;-81
2023/06/24 11:48:41;;;;;;;5.38;4.15;;;;;;;33.20;38.04;100407.38;10134932;28;97096;-83
2023/06/24 11:53:47;;;;;;;5.32;4.30;;;;;;;33.53;37.62;100402.06;10135526;28;97027;-84
2023/06/24 11:58:54;;;;;;;5.80;4.20;;;;;;;33.92;37.14;100396.75;10140408;28;97254;-84
2023/06/24 12:03:58;;;;;;;5.05;3.88;;;;;;;34.26;38.86;100395.75;10129913;28;97607;-82
2023/06/24 12:09:02;;;;;;;5.57;3.97;;;;;;;34.62;38.73;100393.44;10126343;28;98765;-82
2023/06/24 12:14:10;;;;;;;5.45;4.15;;;;;;;34.78;38.72;100389.41;10140696;28;96945;-83
2023/06/24 12:19:14;;;;;;;5.70;4.47;;;;;;;34.84;37.87;100389.41;10127456;28;96893;-81
2023/06/24 12:24:18;;;;;;;5.03;3.95;;;;;;;34.60;37.77;100376.41;10123946;28;98034;-85
2023/06/24 12:29:23;;;;;;;4.93;4.20;;;;;;;35.13;36.62;100374.44;10128126;28;97391;-83
2023/06/24 12:34:26;;;;;;;5.10;3.55;;;;;;;35.49;35.56;100374.72;10130727;28;98474;-78
2023/06/24 12:39:30;;;;;;;4.90;4.00;;;;;;;35.54;35.33;100375.75;10129634;28;98475;-79
2023/06/24 12:44:34;;;;;;;5.25;4.50;;;;;;;35.55;37.29;100369.19;10128161;28;97127;-82
2023/06/24 12:49:38;;;;;;;4.60;3.88;;;;;;;35.75;37.17;100362.75;10126982;28;98439;-82
2023/06/24 12:54:42;;;;;;;5.20;4.20;;;;;;;35.78;36.40;100348.63;10126519;28;97743;-82
2023/06/24 12:59:47;;;;;;;5.43;4.20;;;;;;;36.00;35.47;100353.56;10142575;28;98540;-82
2023/06/24 13:04:50;;;;;;;5.07;4.18;;;;;;;36.22;35.44;100346.63;10126651;28;97753;-82
2023/06/24 13:09:54;;;;;;;4.88;3.80;;;;;;;36.48;35.79;100338.19;10126650;28;97726;-82
2023/06/24 13:14:59;;;;;;;4.80;4.00;;;;;;;36.46;36.24;100337.59;10127441;28;97098;-81
2023/06/24 13:20:04;;;;;;;4.82;3.53;;;;;;;36.00;35.68;100326.16;10124926;28;96909;-81
2023/06/24 13:25:08;;;;;;;5.30;3.95;;;;;;;36.24;37.07;100314.34;10124872;28;97156;-81
2023/06/24 13:30:15;;;;;;;4.60;3.60;;;;;;;36.57;33.85;100314.03;10128635;28;97556;-84
2023/06/24 13:35:19;;;;;;;3.80;3.10;;;;;;;36.74;35.06;100307.72;10121179;28;97426;-80
2023/06/24 13:40:22;;;;;;;5.15;3.75;;;;;;;36.86;34.31;100299.59;10125844;28;96837;-85
2023/06/24 13:45:27;;;;;;;4.63;3.85;;;;;;;36.65;33.69;100283.59;10127321;28;97082;-85
2023/06/24 13:50:31;;;;;;;4.43;3.55;;;;;;;37.08;33.46;100289.84;10122898;28;97174;-85
2023/06/24 13:55:36;;;;;;;5.05;3.78;;;;;;;37.07;33.11;100281.84;10125328;28;96814;-84
2023/06/24 14:00:40;;;;;;;5.28;3.85;;;;;;;37.04;33.55;100280.38;10131634;28;98491;-85
2023/06/24 14:05:44;;;;;;;4.25;3.42;;;;;;;37.31;33.41;100276.25;10130315;28;98517;-82
2023/06/24 14:10:47;;;;;;;5.30;3.95;;;;;;;37.09;33.18;100266.81;10143357;28;96820;-84
2023/06/24 14:15:52;;;;;;;5.85;4.97;;;;;;;37.01;35.19;100266.28;10150035;28;96987;-83
2023/06/24 14:20:55;;;;;;;5.72;5.13;;;;;;;37.06;35.19;100260.94;10131412;28;96917;-83
2023/06/24 14:26:00;;;;;;;7.45;5.75;;;;;;;36.94;35.85;100266.38;10163170;28;96804;-83
2023/06/24 14:31:05;;;;;;;7.60;5.40;;;;;;;36.91;35.85;100263.25;10137632;28;96680;-83
2023/06/24 14:36:10;;;;;;;6.07;5.13;;;;;;;36.40;35.81;100267.19;10136623;28;97439;-81
2023/06/24 14:41:13;;;;;;;6.68;5.18;;;;;;;36.41;35.62;100268.88;10131748;28;98689;-82
2023/06/24 14:46:18;;;;;;;6.13;4.95;;;;;;;36.37;34.84;100275.00;10160482;28;98311;-83
2023/06/24 14:51:22;;;;;;;6.80;4.50;;;;;;;36.21;35.57;100270.09;10124340;28;100254;-84
2023/06/24 14:56:27;;;;;;;7.00;5.35;;;;;;;35.96;35.15;100275.63;10124925;28;96901;-82
2023/06/24 15:01:31;;;;;;;5.55;4.30;;;;;;;35.88;35.45;100294.19;10132140;28;96962;-79
2023/06/24 15:06:35;;;;;;;5.15;4.47;;;;;;;35.54;35.56;100298.22;10130641;28;96736;-79
2023/06/24 15:11:38;;;;;;;5.65;4.18;;;;;;;35.36;34.79;100293.47;10161942;28;96845;-79
2023/06/24 15:16:42;;;;;;;5.25;4.07;;;;;;;35.23;34.34;100292.69;10133479;28;96871;-78
2023/06/24 15:21:46;;;;;;;6.57;4.40;;;;;;;35.30;34.50;100285.31;10129612;28;97114;-79
2023/06/24 15:26:49;;;;;;;5.45;4.50;;;;;;;35.40;34.85;100293.88;10146291;28;97031;-78
2023/06/24 15:31:54;;;;;;;6.28;4.47;;;;;;;35.21;34.72;100297.56;10130514;28;96858;-78
2023/06/24 15:36:57;;;;;;;5.75;4.35;;;;;;;34.98;35.22;100294.50;10128925;28;96964;-75
2023/06/24 15:42:00;;;;;;;5.57;4.10;;;;;;;35.01;35.08;100296.81;10129442;28;98043;-77
2023/06/24 15:47:05;;;;;;;5.50;4.00;;;;;;;34.93;34.94;100302.47;10127152;28;96808;-76
2023/06/24 15:52:08;;;;;;;5.32;4.32;;;;;;;34.88;34.89;100303.13;10127914;28;98402;-76
2023/06/24 15:57:12;;;;;;;4.97;4.38;;;;;;;34.76;35.23;100302.13;10128408;28;97012;-76
2023/06/24 16:02:18;;;;;;;5.97;4.22;;;;;;;34.53;35.51;100299.03;10112492;28;96704;-75
2023/06/24 16:07:22;;;;;;;5.50;4.38;;;;;;;34.51;35.41;100306.59;10136066;28;96786;-75
2023/06/24 16:12:25;;;;;;;5.13;3.83;;;;;;;34.42;35.55;100311.41;10135895;28;96913;-75
2023/06/24 16:17:30;;;;;;;6.20;4.22;;;;;;;34.39;35.44;100302.81;10134861;28;96987;-76
2023/06/24 16:22:33;;;;;;;5.88;4.38;;;;;;;34.29;36.39;100306.00;10135297;28;96878;-76
2023/06/24 16:27:36;;;;;;;5.38;4.47;;;;;;;34.27;36.48;100296.31;10133937;28;97088;-75
2023/06/24 16:32:41;;;;;;;6.13;4.75;;;;;;;34.23;37.23;100295.06;10135092;28;96995;-74
2023/06/24 16:37:45;;;;;;;5.25;4.18;;;;;;;34.05;37.53;100297.59;10135423;28;96780;-75
2023/06/24 16:42:49;;;;;;;5.68;4.45;;;;;;;34.05;37.48;100292.13;10138266;28;97360;-77
2023/06/24 16:47:54;;;;;;;8.45;5.10;;;;;;;34.01;38.36;100291.72;10142457;28;97578;-73
2023/06/24 16:52:57;;;;;;;6.70;4.75;;;;;;;33.91;38.44;100285.81;10135047;28;97045;-75
2023/06/24 16:58:03;;;;;;;5.95;4.20;;;;;;;33.81;38.11;100290.00;10139592;28;96882;-75
2023/06/24 17:03:08;;;;;;;5.78;4.65;;;;;;;33.80;38.22;100289.16;10157285;28;96869;-75
2023/06/24 17:08:12;;;;;;;6.10;4.65;;;;;;;33.72;38.03;100285.78;10136682;28;97342;-76
2023/06/24 17:13:16;;;;;;;6.40;4.80;;;;;;;33.69;38.81;100281.59;10133102;28;96981;-76
2023/06/24 17:18:21;;;;;;;6.18;4.82;;;;;;;33.72;39.09;100293.97;10124941;28;97440;-76
2023/06/24 17:23:25;;;;;;;7.07;5.13;;;;;;;33.70;39.04;100296.06;10137956;28;96909;-75
2023/06/24 17:28:28;;;;;;;7.53;4.93;;;;;;;33.70;39.11;100294.19;10140986;28;97664;-75
2023/06/24 17:33:33;;;;;;;6.50;4.65;;;;;;;33.70;39.64;100286.00;10134119;28;96919;-75
2023/06/24 17:38:37;;;;;;;8.63;5.32;;;;;;;33.71;39.85;100295.03;10134043;28;97133;-75
2023/06/24 17:43:40;;;;;;;6.60;4.95;;;;;;;33.57;39.85;100294.19;10144531;28;97222;-75
2023/06/24 17:48:45;;;;;;;5.70;4.95;;;;;;;33.49;39.97;100303.41;10130836;28;97714;-75
2023/06/24 17:53:49;;;;;;;7.22;4.97;;;;;;;33.38;40.63;100300.41;10130937;28;97371;-75
2023/06/24 17:59:10;;;;;;;8.27;5.30;;;;;;;33.10;40.90;100311.44;10136831;28;96863;-79
2023/06/24 18:04:14;;;;;;;5.70;4.95;;;;;;;33.03;41.84;100302.38;10134199;28;97376;-76
2023/06/24 18:09:19;;;;;;;102.75;77.25;;;;;;;33.09;41.26;100307.00;10120610;28;97087;-75
2023/06/24 18:14:23;;;;;;;320.25;171.65;;;;;;;33.03;41.93;100320.63;10156394;23;97978;-74
2023/06/24 18:19:27;;;;;;;12.18;10.93;;;;;;;32.79;42.69;100316.50;10137242;28;97122;-73
2023/06/24 18:24:30;;;;;;;9.43;6.90;;;;;;;32.76;42.66;100325.06;10161069;28;96873;-74
2023/06/24 18:29:34;;;;;;;7.45;6.43;;;;;;;32.59;43.14;100318.25;10169985;28;98884;-73
2023/06/24 18:34:38;;;;;;;9.10;6.38;;;;;;;32.40;44.27;100330.72;10170603;28;96773;-76
2023/06/24 18:39:44;;;;;;;8.05;5.63;;;;;;;32.28;44.64;100317.81;10127471;28;96705;-75
2023/06/24 18:44:48;;;;;;;9.05;6.22;;;;;;;32.05;44.80;100318.06;10165962;28;96623;-81
2023/06/24 18:49:52;;;;;;;8.05;5.90;;;;;;;31.96;45.07;100329.28;10138469;28;97158;-78
2023/06/24 18:54:55;;;;;;;6.60;5.72;;;;;;;31.84;44.70;100328.13;10165745;28;96828;-76
2023/06/24 18:59:59;;;;;;;7.88;6.28;;;;;;;31.78;45.22;100342.47;10152287;28;97090;-77
2023/06/24 19:05:04;;;;;;;8.13;5.97;;;;;;;31.75;45.34;100342.88;10160815;28;96834;-77
2023/06/24 19:10:07;;;;;;;8.63;6.40;;;;;;;31.71;44.89;100330.69;10133919;28;96816;-76
2023/06/24 19:15:11;;;;;;;6.93;5.53;;;;;;;31.68;44.94;100336.53;10133787;28;96845;-80
2023/06/24 19:20:16;;;;;;;7.53;5.45;;;;;;;31.48;45.99;100349.09;10134204;28;96719;-77
2023/06/24 19:25:19;;;;;;;50.42;34.33;;;;;;;31.35;45.66;100355.22;10140768;28;96641;-76
2023/06/24 19:30:22;;;;;;;;;;;;;;;31.49;46.37;100354.31;10151849;28;96788;-77
2023/06/24 19:35:27;;;;;;;392.83;291.20;;;;;;;31.54;45.99;100356.47;10134588;28;96757;-77
2023/06/24 19:40:30;;;;;;;164.13;117.15;;;;;;;31.41;47.00;100359.03;10139366;28;96546;-76
2023/06/24 19:45:33;;;;;;;;;;;;;;;31.22;48.33;100363.16;10139665;28;96830;-76
2023/06/24 19:50:37;;;;;;;16.90;14.93;;;;;;;31.18;47.80;100361.88;10138342;28;96683;-77
2023/06/24 19:55:41;;;;;;;11.32;9.38;;;;;;;31.08;47.88;100372.19;10138444;28;96913;-77
2023/06/24 20:00:44;;;;;;;9.23;7.80;;;;;;;31.05;48.39;100372.56;10139108;28;97022;-77
2023/06/24 20:05:48;;;;;;;;;;;;;;;30.85;49.35;100374.19;10138902;28;96885;-77
2023/06/24 20:10:52;;;;;;;8.63;6.55;;;;;;;30.81;48.76;100378.28;10139777;28;96798;-77
2023/06/24 20:15:55;;;;;;;9.20;6.97;;;;;;;30.52;49.94;100376.38;10137416;28;96891;-76
2023/06/24 20:21:00;;;;;;;;;;;;;;;30.37;51.49;100386.34;10121269;28;96641;-76
2023/06/24 20:26:03;;;;;;;9.55;6.13;;;;;;;30.23;50.55;100392.59;10100203;28;96753;-77
2023/06/24 20:31:06;;;;;;;7.93;5.88;;;;;;;30.22;50.78;100391.75;10127483;28;96940;-76
2023/06/24 20:36:10;;;;;;;;;;;;;;;30.05;51.85;100397.47;10142600;28;96684;-86
2023/06/24 20:41:21;;;;;;;8.88;6.30;;;;;;;30.00;51.40;100394.47;10148130;28;96792;-86
2023/06/24 20:46:24;;;;;;;10.43;6.35;;;;;;;29.88;51.67;100407.59;10141596;28;96761;-85
2023/06/24 20:51:30;;;;;;;7.68;5.78;;;;;;;29.80;52.19;100404.94;10139425;28;96918;-85
2023/06/24 20:56:34;;;;;;;9.25;6.30;;;;;;;29.67;52.41;100412.84;10139689;28;96848;-86
2023/06/24 21:01:37;;;;;;;8.73;6.28;;;;;;;29.58;52.53;100418.47;10139475;28;96782;-86
2023/06/24 21:06:42;;;;;;;8.40;6.38;;;;;;;29.37;52.91;100427.19;10147422;28;98810;-84
2023/06/24 21:11:45;;;;;;;8.55;6.55;;;;;;;29.17;53.54;100431.38;10143113;28;96946;-82
2023/06/24 21:16:49;;;;;;;7.70;5.93;;;;;;;29.00;53.75;100435.97;10144189;28;96878;-78
2023/06/24 21:21:53;;;;;;;7.18;5.95;;;;;;;29.04;53.69;100441.91;10150392;28;97943;-81
2023/06/24 21:26:56;;;;;;;8.80;6.28;;;;;;;28.72;54.39;100442.78;10132667;28;96863;-80
2023/06/24 21:32:00;;;;;;;7.88;5.95;;;;;;;28.54;55.08;100444.84;10156306;28;96755;-81
2023/06/24 21:37:05;;;;;;;7.88;5.88;;;;;;;28.34;55.45;100453.50;10154772;28;97098;-84
2023/06/24 21:42:08;;;;;;;9.60;6.03;;;;;;;28.21;55.70;100447.69;10135555;28;96971;-82
2023/06/24 21:47:12;;;;;;;8.98;6.05;;;;;;;28.01;56.32;100442.59;10132690;28;96925;-79
2023/06/24 21:52:17;;;;;;;9.55;6.25;;;;;;;28.02;56.12;100448.84;10131261;28;97344;-81
2023/06/24 21:57:21;;;;;;;9.35;6.18;;;;;;;27.90;56.77;100445.63;10146924;28;96887;-80
2023/06/24 22:02:24;;;;;;;10.10;6.50;;;;;;;27.75;56.68;100454.56;10145983;28;98851;-78
2023/06/24 22:07:29;;;;;;;9.73;6.38;;;;;;;27.65;57.47;100461.94;10130165;28;97201;-78
2023/06/24 22:12:32;;;;;;;8.65;6.53;;;;;;;27.44;57.89;100464.22;10132752;28;97673;-78
2023/06/24 22:17:38;;;;;;;8.95;6.22;;;;;;;27.37;57.73;100466.75;10131778;28;96924;-78
2023/06/24 22:22:44;;;;;;;9.35;6.43;;;;;;;27.38;57.75;100472.97;10132204;28;96811;-78
2023/06/24 22:27:47;;;;;;;7.82;5.90;;;;;;;27.20;58.71;100474.94;10132329;28;97700;-78
2023/06/24 22:32:50;;;;;;;8.85;6.43;;;;;;;27.26;58.60;100474.28;10132599;28;97029;-78
2023/06/24 22:37:55;;;;;;;8.35;6.20;;;;;;;27.15;58.34;100469.19;10125263;28;96813;-78
2023/06/24 22:42:58;;;;;;;7.75;5.90;;;;;;;26.98;58.99;100481.69;10139629;28;96667;-77
2023/06/24 22:48:02;;;;;;;8.55;6.32;;;;;;;26.96;58.82;100473.75;10130588;28;97798;-78
2023/06/24 22:53:06;;;;;;;9.80;6.97;;;;;;;26.95;59.10;100480.16;10137254;28;97553;-77
2023/06/24 22:58:10;;;;;;;8.70;6.25;;;;;;;26.92;59.29;100485.03;10136891;28;98666;-77
2023/06/24 23:03:13;;;;;;;9.37;6.47;;;;;;;26.78;59.20;100494.56;10135756;28;97835;-77
2023/06/24 23:08:19;;;;;;;8.75;6.47;;;;;;;26.84;59.14;100491.22;10143088;28;96943;-80
2023/06/24 23:13:23;;;;;;;9.27;6.28;;;;;;;26.81;59.29;100494.25;10131760;28;98769;-81
2023/06/24 23:18:26;;;;;;;8.00;6.10;;;;;;;26.77;59.96;100492.00;10160882;28;98424;-80
2023/06/24 23:23:36;;;;;;;;;;;;;;;26.66;60.12;100501.22;10162541;28;96819;-80